Observation data for Floydada on 03/11/2018      Previous  Date  Next       Current Mesonet Observations  Soil Data  Daily Summary Page  Observations in Plain Language
KFLS 110600Z 02019G26KT 15/03 A2995 RMK A01 T01460028  RH  046%=      5-min Rain = 0
KFLS 110605Z 02018G23KT 15/03 A2995 RMK A01 T01450031  RH  047%=      5-min Rain = 0
KFLS 110610Z 02017G23KT 14/03 A2996 RMK A01 T01440032  RH  048%=      5-min Rain = 0
KFLS 110615Z 01020G27KT 14/M01 A2996 RMK A01 T01411008  RH  036%=      5-min Rain = 0
KFLS 110620Z 02022G31KT 14/M02 A2996 RMK A01 T01411023  RH  033%=      5-min Rain = 0
KFLS 110625Z 02022G34KT 14/M02 A2997 RMK A01 T01391024  RH  033%=      5-min Rain = 0
KFLS 110630Z 02024G32KT 14/M04 A2998 RMK A01 T01381035  RH  030%=      5-min Rain = 0
KFLS 110635Z 02025G33KT 14/M05 A2998 RMK A01 T01351045  RH  029%=      5-min Rain = 0
KFLS 110640Z 02028G34KT 13/M05 A2998 RMK A01 T01331049  RH  028%=      5-min Rain = 0
KFLS 110645Z 02026G36KT 13/M05 A2998 RMK A01 T01321050  RH  028%=      5-min Rain = 0
KFLS 110650Z 02024G34KT 13/M05 A2999 RMK A01 T01311051  RH  028%=      5-min Rain = 0
KFLS 110655Z 02024G37KT 13/M05 A2999 RMK A01 T01291052  RH  028%=      5-min Rain = 0
KFLS 110700Z 02025G32KT 13/M05 A30 RMK A01 T01281053  RH  028%=      5-min Rain = 0
KFLS 110705Z 03026G35KT 13/M06 A30 RMK A01 T01261055  RH  028%=      5-min Rain = 0
KFLS 110710Z 02024G31KT 12/M06 A30 RMK A01 T01241055  RH  029%=      5-min Rain = 0
KFLS 110715Z 02023G30KT 12/M06 A3001 RMK A01 T01221055  RH  029%=      5-min Rain = 0
KFLS 110720Z 02024G31KT 12/M05 A3001 RMK A01 T01221054  RH  029%=      5-min Rain = 0
KFLS 110725Z 02024G33KT 12/M05 A3002 RMK A01 T01211053  RH  029%=      5-min Rain = 0
KFLS 110730Z 02024G35KT 12/M05 A3002 RMK A01 T01211052  RH  030%=      5-min Rain = 0
KFLS 110735Z 02024G31KT 12/M05 A3002 RMK A01 T01201050  RH  030%=      5-min Rain = 0
KFLS 110740Z 02025G33KT 12/M05 A3003 RMK A01 T01191048  RH  031%=      5-min Rain = 0
KFLS 110745Z 02024G30KT 12/M05 A3003 RMK A01 T01181047  RH  032%=      5-min Rain = 0
KFLS 110750Z 02028G37KT 12/M04 A3003 RMK A01 T01181043  RH  032%=      5-min Rain = 0
KFLS 110755Z 02026G38KT 12/M04 A3004 RMK A01 T01171042  RH  033%=      5-min Rain = 0
KFLS 110800Z 02023G30KT 12/M04 A3004 RMK A01 T01151042  RH  033%=      5-min Rain = 0
KFLS 110805Z 02024G32KT 11/M04 A3004 RMK A01 T01141040  RH  034%=      5-min Rain = 0
KFLS 110810Z 02026G34KT 11/M04 A3004 RMK A01 T01141038  RH  035%=      5-min Rain = 0
KFLS 110815Z 02027G38KT 11/M04 A3004 RMK A01 T01141037  RH  035%=      5-min Rain = 0
KFLS 110820Z 03026G33KT 11/M04 A3005 RMK A01 T01121036  RH  036%=      5-min Rain = 0
KFLS 110825Z 02024G33KT 11/M04 A3004 RMK A01 T01111035  RH  036%=      5-min Rain = 0
KFLS 110830Z 02023G31KT 11/M04 A3005 RMK A01 T01111035  RH  036%=      5-min Rain = 0
KFLS 110835Z 02024G32KT 11/M04 A3005 RMK A01 T01101035  RH  036%=      5-min Rain = 0
KFLS 110840Z 03023G32KT 11/M04 A3005 RMK A01 T01101035  RH  036%=      5-min Rain = 0
KFLS 110845Z 03022G27KT 11/M04 A3005 RMK A01 T01091035  RH  037%=      5-min Rain = 0
KFLS 110850Z 03022G31KT 11/M04 A3005 RMK A01 T01091036  RH  036%=      5-min Rain = 0
KFLS 110855Z 02020G26KT 11/M04 A3005 RMK A01 T01091036  RH  036%=      5-min Rain = 0
KFLS 110900Z 02020G26KT 11/M04 A3006 RMK A01 T01081037  RH  036%=      5-min Rain = 0
KFLS 110905Z 02020G27KT 11/M04 A3006 RMK A01 T01081037  RH  036%=      5-min Rain = 0
KFLS 110910Z 02020G27KT 11/M04 A3006 RMK A01 T01071037  RH  037%=      5-min Rain = 0
KFLS 110915Z 02021G31KT 11/M04 A3006 RMK A01 T01071038  RH  036%=      5-min Rain = 0
KFLS 110920Z 02022G28KT 11/M04 A3006 RMK A01 T01061039  RH  036%=      5-min Rain = 0
KFLS 110925Z 02018G24KT 11/M04 A3006 RMK A01 T01061040  RH  036%=      5-min Rain = 0
KFLS 110930Z 02018KT 11/M04 A3006 RMK A01 T01051041  RH  036%=      5-min Rain = 0
KFLS 110935Z 02020G26KT 11/M04 A3006 RMK A01 T01051042  RH  036%=      5-min Rain = 0
KFLS 110940Z 02018G23KT 11/M04 A3006 RMK A01 T01051043  RH  035%=      5-min Rain = 0
KFLS 110945Z 02017G25KT 10/M04 A3006 RMK A01 T01041044  RH  035%=      5-min Rain = 0
KFLS 110950Z 02019G27KT 11/M05 A3006 RMK A01 T01051047  RH  034%=      5-min Rain = 0
KFLS 110955Z 02019G25KT 11/M05 A3007 RMK A01 T01051050  RH  034%=      5-min Rain = 0
KFLS 111000Z 02021G28KT 11/M05 A3007 RMK A01 T01051052  RH  033%=      5-min Rain = 0
KFLS 111005Z 02020G25KT 11/M05 A3007 RMK A01 T01051054  RH  033%=      5-min Rain = 0
KFLS 111010Z 02018G24KT 10/M05 A3008 RMK A01 T01041054  RH  033%=      5-min Rain = 0
KFLS 111015Z 02021G32KT 10/M05 A3008 RMK A01 T01031054  RH  033%=      5-min Rain = 0
KFLS 111020Z 02023G31KT 10/M05 A3008 RMK A01 T01031051  RH  034%=      5-min Rain = 0
KFLS 111025Z 02023G30KT 10/M05 A3008 RMK A01 T01021047  RH  035%=      5-min Rain = 0
KFLS 111030Z 02023G30KT 10/M05 A3008 RMK A01 T01011045  RH  036%=      5-min Rain = 0
KFLS 111035Z 02024G32KT 10/M04 A3008 RMK A01 T01001044  RH  036%=      5-min Rain = 0
KFLS 111040Z 02022G30KT 10/M04 A3009 RMK A01 T00991044  RH  037%=      5-min Rain = 0
KFLS 111045Z 02020G27KT 10/M05 A3009 RMK A01 T00981046  RH  036%=      5-min Rain = 0
KFLS 111050Z 02020G26KT 10/M05 A3009 RMK A01 T00971047  RH  036%=      5-min Rain = 0
KFLS 111055Z 02020G26KT 10/M05 A3009 RMK A01 T00961048  RH  036%=      5-min Rain = 0
KFLS 111100Z 02023G32KT 10/M05 A3009 RMK A01 T00951046  RH  037%=      5-min Rain = 0
KFLS 111105Z 02022G28KT 09/M05 A301 RMK A01 T00941045  RH  037%=      5-min Rain = 0
KFLS 111110Z 02020G26KT 09/M04 A301 RMK A01 T00931044  RH  038%=      5-min Rain = 0
KFLS 111115Z 02022G29KT 09/M05 A3011 RMK A01 T00931045  RH  038%=      5-min Rain = 0
KFLS 111120Z 02022G31KT 09/M05 A3011 RMK A01 T00931045  RH  038%=      5-min Rain = 0
KFLS 111125Z 02020G27KT 09/M04 A3011 RMK A01 T00911044  RH  039%=      5-min Rain = 0
KFLS 111130Z 02020G25KT 09/M04 A3011 RMK A01 T00911043  RH  039%=      5-min Rain = 0
KFLS 111135Z 02020G26KT 09/M04 A3011 RMK A01 T00901044  RH  039%=      5-min Rain = 0
KFLS 111140Z 02020G27KT 09/M04 A3011 RMK A01 T00891044  RH  039%=      5-min Rain = 0
KFLS 111145Z 02021G28KT 09/M04 A3012 RMK A01 T00881043  RH  040%=      5-min Rain = 0
KFLS 111150Z 02019G30KT 09/M04 A3012 RMK A01 T00861043  RH  040%=      5-min Rain = 0
KFLS 111155Z 02022G30KT 09/M04 A3012 RMK A01 T00861042  RH  040%=      5-min Rain = 0
KFLS 111200Z 02019G27KT 08/M04 A3012 RMK A01 T00841042  RH  041%=      5-min Rain = 0
KFLS 111205Z 02019G26KT 08/M04 A3012 RMK A01 T00831042  RH  041%=      5-min Rain = 0
KFLS 111210Z 01018G24KT 08/M04 A3013 RMK A01 T00831043  RH  041%=      5-min Rain = 0
KFLS 111215Z 01018G23KT 08/M05 A3013 RMK A01 T00811045  RH  041%=      5-min Rain = 0
KFLS 111220Z 01021G29KT 08/M05 A3014 RMK A01 T00771050  RH  041%=      5-min Rain = 0
KFLS 111225Z 01021G29KT 08/M05 A3014 RMK A01 T00751051  RH  041%=      5-min Rain = 0
KFLS 111230Z 01022G29KT 07/M05 A3014 RMK A01 T00741053  RH  041%=      5-min Rain = 0
KFLS 111235Z 01019G25KT 07/M05 A3014 RMK A01 T00721054  RH  041%=      5-min Rain = 0
KFLS 111240Z 01019G26KT 07/M06 A3014 RMK A01 T00711056  RH  040%=      5-min Rain = 0
KFLS 111245Z 02019G27KT 07/M06 A3014 RMK A01 T00691058  RH  040%=      5-min Rain = 0
KFLS 111250Z 01020G26KT 07/M06 A3014 RMK A01 T00681061  RH  040%=      5-min Rain = 0
KFLS 111255Z 01021G27KT 07/M06 A3015 RMK A01 T00661064  RH  039%=      5-min Rain = 0
KFLS 111300Z 01019G27KT 07/M07 A3015 RMK A01 T00651066  RH  039%=      5-min Rain = 0
KFLS 111305Z 01020G26KT 06/M07 A3016 RMK A01 T00641067  RH  039%=      5-min Rain = 0
KFLS 111310Z 01020G27KT 06/M07 A3016 RMK A01 T00631067  RH  039%=      5-min Rain = 0
KFLS 111315Z 01020G26KT 06/M07 A3016 RMK A01 T00631067  RH  039%=      5-min Rain = 0
KFLS 111320Z 01020G28KT 06/M07 A3016 RMK A01 T00631067  RH  039%=      5-min Rain = 0
KFLS 111325Z 01019G26KT 06/M07 A3017 RMK A01 T00631067  RH  039%=      5-min Rain = 0
KFLS 111330Z 01017G22KT 06/M07 A3018 RMK A01 T00631067  RH  039%=      5-min Rain = 0
KFLS 111335Z 01017G24KT 06/M07 A3018 RMK A01 T00631068  RH  039%=      5-min Rain = 0
KFLS 111340Z 01017G22KT 06/M07 A3018 RMK A01 T00631068  RH  039%=      5-min Rain = 0
KFLS 111345Z 01016G22KT 06/M07 A3019 RMK A01 T00631068  RH  039%=      5-min Rain = 0
KFLS 111350Z 01019G26KT 06/M07 A3019 RMK A01 T00631068  RH  039%=      5-min Rain = 0
KFLS 111355Z 01020KT 06/M07 A302 RMK A01 T00621067  RH  039%=      5-min Rain = 0
KFLS 111400Z 01016G23KT 06/M07 A302 RMK A01 T00631067  RH  039%=      5-min Rain = 0
KFLS 111405Z 01019G24KT 06/M07 A302 RMK A01 T00631068  RH  039%=      5-min Rain = 0
KFLS 111410Z 01017G23KT 06/M07 A3021 RMK A01 T00631069  RH  039%=      5-min Rain = 0
KFLS 111415Z 01018G25KT 06/M07 A302 RMK A01 T00621070  RH  039%=      5-min Rain = 0
KFLS 111420Z 01017G25KT 06/M07 A302 RMK A01 T00631070  RH  038%=      5-min Rain = 0
KFLS 111425Z 02018G24KT 06/M07 A302 RMK A01 T00631070  RH  038%=      5-min Rain = 0
KFLS 111430Z 01020KT 06/M07 A3021 RMK A01 T00641071  RH  038%=      5-min Rain = 0
KFLS 111435Z 01019G25KT 06/M07 A3021 RMK A01 T00641071  RH  038%=      5-min Rain = 0
KFLS 111440Z 01018G26KT 06/M07 A3021 RMK A01 T00641069  RH  039%=      5-min Rain = 0
KFLS 111445Z 02020G27KT 06/M07 A3021 RMK A01 T00641068  RH  039%=      5-min Rain = 0
KFLS 111450Z 01019G25KT 06/M07 A3022 RMK A01 T00641066  RH  039%=      5-min Rain = 0
KFLS 111455Z 01022G29KT 06/M06 A3023 RMK A01 T00621064  RH  040%=      5-min Rain = 0
KFLS 111500Z 01019G29KT 06/M06 A3023 RMK A01 T00611063  RH  041%=      5-min Rain = 0
KFLS 111505Z 01018G24KT 06/M06 A3023 RMK A01 T00621062  RH  041%=      5-min Rain = 0
KFLS 111510Z 01018G25KT 06/M06 A3023 RMK A01 T00621064  RH  041%=      5-min Rain = 0
KFLS 111515Z 01019G25KT 06/M06 A3023 RMK A01 T00611061  RH  042%=      5-min Rain = 0
KFLS 111520Z 01021G28KT 06/M06 A3024 RMK A01 T00601064  RH  041%=      5-min Rain = 0
KFLS 111525Z 02021G28KT 06/M07 A3024 RMK A01 T00611067  RH  040%=      5-min Rain = 0
KFLS 111530Z 02020G25KT 06/M07 A3025 RMK A01 T00621065  RH  040%=      5-min Rain = 0
KFLS 111535Z 01018G24KT 06/M06 A3025 RMK A01 T00631063  RH  040%=      5-min Rain = 0
KFLS 111540Z 01018G24KT 07/M06 A3025 RMK A01 T00651062  RH  040%=      5-min Rain = 0
KFLS 111545Z 01019G26KT 07/M07 A3025 RMK A01 T00651067  RH  039%=      5-min Rain = 0
KFLS 111550Z 01018G24KT 07/M07 A3026 RMK A01 T00651067  RH  039%=      5-min Rain = 0
KFLS 111555Z 01019G24KT 07/M07 A3026 RMK A01 T00661068  RH  038%=      5-min Rain = 0
KFLS 111600Z 00021KT 07/M07 A3026 RMK A01 T00671069  RH  038%=      5-min Rain = 0
KFLS 111605Z 01020G26KT 07/M07 A3026 RMK A01 T00691070  RH  037%=      5-min Rain = 0
KFLS 111610Z 01019G26KT 07/M07 A3026 RMK A01 T00731072  RH  035%=      5-min Rain = 0
KFLS 111615Z 00018G24KT 07/M07 A3027 RMK A01 T00741073  RH  035%=      5-min Rain = 0
KFLS 111620Z 00018G24KT 08/M08 A3027 RMK A01 T00751076  RH  034%=      5-min Rain = 0
KFLS 111625Z 01019G24KT 08/M08 A3027 RMK A01 T00751077  RH  034%=      5-min Rain = 0
KFLS 111630Z 01019G24KT 08/M08 A3028 RMK A01 T00771079  RH  032%=      5-min Rain = 0
KFLS 111635Z 00017G24KT 08/M08 A3027 RMK A01 T00831079  RH  031%=      5-min Rain = 0
KFLS 111640Z 01019G25KT 09/M08 A3027 RMK A01 T00921082  RH  029%=      5-min Rain = 0
KFLS 111645Z 01017G23KT 10/M08 A3027 RMK A01 T00951082  RH  028%=      5-min Rain = 0
KFLS 111650Z 00019G25KT 10/M08 A3027 RMK A01 T00971083  RH  028%=      5-min Rain = 0
KFLS 111655Z 01020G26KT 10/M09 A3028 RMK A01 T00971086  RH  027%=      5-min Rain = 0
KFLS 111700Z 01018KT 10/M09 A3027 RMK A01 T00951085  RH  027%=      5-min Rain = 0
KFLS 111705Z 01020G25KT 09/M09 A3027 RMK A01 T00931085  RH  028%=      5-min Rain = 0
KFLS 111710Z 01018G25KT 10/M08 A3028 RMK A01 T01011083  RH  027%=      5-min Rain = 0
KFLS 111715Z 01020G25KT 10/M09 A3028 RMK A01 T01021086  RH  026%=      5-min Rain = 0
KFLS 111720Z 01021G28KT 10/M09 A3028 RMK A01 T01001087  RH  026%=      5-min Rain = 0
KFLS 111725Z 01019G26KT 10/M09 A3028 RMK A01 T01011088  RH  026%=      5-min Rain = 0
KFLS 111730Z 01019G28KT 10/M09 A3028 RMK A01 T01031088  RH  025%=      5-min Rain = 0
KFLS 111735Z 01021G27KT 10/M09 A3028 RMK A01 T01041091  RH  025%=      5-min Rain = 0
KFLS 111740Z 02020G28KT 11/M09 A3028 RMK A01 T01091091  RH  024%=      5-min Rain = 0
KFLS 111745Z 02019G25KT 11/M09 A3028 RMK A01 T01051091  RH  025%=      5-min Rain = 0
KFLS 111750Z 01016G24KT 11/M09 A3028 RMK A01 T01061089  RH  025%=      5-min Rain = 0
KFLS 111755Z 01018G25KT 11/M09 A3028 RMK A01 T01111090  RH  024%=      5-min Rain = 0
KFLS 111800Z 00020G26KT 11/M09 A3027 RMK A01 T01141092  RH  023%=      5-min Rain = 0
KFLS 111805Z 01021G30KT 11/M09 A3028 RMK A01 T01141093  RH  023%=      5-min Rain = 0
KFLS 111810Z 00018G27KT 11/M09 A3028 RMK A01 T01121092  RH  023%=      5-min Rain = 0
KFLS 111815Z 01016G23KT 11/M09 A3028 RMK A01 T01141089  RH  023%=      5-min Rain = 0
KFLS 111820Z 02017G24KT 12/M09 A3027 RMK A01 T01211089  RH  022%=      5-min Rain = 0
KFLS 111825Z 00018G25KT 12/M10 A3028 RMK A01 T01181095  RH  022%=      5-min Rain = 0
KFLS 111830Z 01015G23KT 12/M09 A3028 RMK A01 T01151092  RH  023%=      5-min Rain = 0
KFLS 111835Z 02016G22KT 12/M09 A3027 RMK A01 T01181090  RH  023%=      5-min Rain = 0
KFLS 111840Z 00018G25KT 12/M09 A3027 RMK A01 T01151093  RH  023%=      5-min Rain = 0
KFLS 111845Z 01017G23KT 11/M09 A3027 RMK A01 T01141088  RH  024%=      5-min Rain = 0
KFLS 111850Z 02018G26KT 12/M09 A3028 RMK A01 T01221086  RH  023%=      5-min Rain = 0
KFLS 111855Z 01018G23KT 12/M09 A3027 RMK A01 T01221087  RH  023%=      5-min Rain = 0
KFLS 111900Z 01017G23KT 12/M09 A3027 RMK A01 T01181089  RH  023%=      5-min Rain = 0
KFLS 111905Z 36015G20KT 12/M09 A3027 RMK A01 T01171085  RH  024%=      5-min Rain = 0
KFLS 111910Z 01015G21KT 12/M09 A3027 RMK A01 T01211087  RH  023%=      5-min Rain = 0
KFLS 111915Z 36016G22KT 12/M09 A3027 RMK A01 T01241089  RH  022%=      5-min Rain = 0
KFLS 111920Z 01017G23KT 12/M10 A3027 RMK A01 T01241096  RH  021%=      5-min Rain = 0
KFLS 111925Z 01017G23KT 13/M10 A3027 RMK A01 T01321102  RH  019%=      5-min Rain = 0
KFLS 111930Z 00018G28KT 12/M11 A3026 RMK A01 T01241106  RH  019%=      5-min Rain = 0
KFLS 111935Z 01017G23KT 12/M10 A3026 RMK A01 T01181104  RH  020%=      5-min Rain = 0
KFLS 111940Z 01015G24KT 11/M10 A3026 RMK A01 T01131102  RH  021%=      5-min Rain = 0
KFLS 111945Z 01014G23KT 12/M10 A3026 RMK A01 T01181102  RH  021%=      5-min Rain = 0
KFLS 111950Z 36016G22KT 13/M10 A3026 RMK A01 T01311100  RH  019%=      5-min Rain = 0
KFLS 111955Z 35015G22KT 13/M10 A3026 RMK A01 T01321101  RH  019%=      5-min Rain = 0
KFLS 112000Z 35013G18KT 14/M10 A3026 RMK A01 T01371102  RH  018%=      5-min Rain = 0
KFLS 112005Z 36012G17KT 13/M10 A3026 RMK A01 T01301102  RH  019%=      5-min Rain = 0
KFLS 112010Z 36011G17KT 13/M10 A3026 RMK A01 T01261101  RH  020%=      5-min Rain = 0
KFLS 112015Z 36015G21KT 12/M10 A3026 RMK A01 T01231104  RH  020%=      5-min Rain = 0
KFLS 112020Z 00013G18KT 13/M10 A3026 RMK A01 T01251103  RH  020%=      5-min Rain = 0
KFLS 112025Z 00012G19KT 12/M10 A3026 RMK A01 T01221104  RH  020%=      5-min Rain = 0
KFLS 112030Z 00016G22KT 13/M10 A3026 RMK A01 T01261104  RH  019%=      5-min Rain = 0
KFLS 112035Z 01012G17KT 12/M11 A3026 RMK A01 T01241105  RH  019%=      5-min Rain = 0
KFLS 112040Z 35013G24KT 12/M11 A3025 RMK A01 T01231106  RH  019%=      5-min Rain = 0
KFLS 112045Z 35012G20KT 13/M11 A3025 RMK A01 T01291108  RH  018%=      5-min Rain = 0
KFLS 112050Z 00014G19KT 13/M11 A3025 RMK A01 T01311109  RH  018%=      5-min Rain = 0
KFLS 112055Z 36015G24KT 13/M11 A3025 RMK A01 T01341107  RH  018%=      5-min Rain = 0
KFLS 112100Z 34011G17KT 13/M11 A3024 RMK A01 T01321108  RH  018%=      5-min Rain = 0
KFLS 112105Z 01014G22KT 14/M11 A3024 RMK A01 T01401111  RH  017%=      5-min Rain = 0
KFLS 112110Z 02015KT 14/M12 A3024 RMK A01 T01421117  RH  016%=      5-min Rain = 0
KFLS 112115Z 35015G21KT 15/M12 A3024 RMK A01 T01451115  RH  016%=      5-min Rain = 0
KFLS 112120Z 00015G23KT 14/M12 A3024 RMK A01 T01411120  RH  015%=      5-min Rain = 0
KFLS 112125Z 01013G18KT 14/M12 A3024 RMK A01 T01381124  RH  015%=      5-min Rain = 0
KFLS 112130Z 00014G21KT 14/M13 A3023 RMK A01 T01421127  RH  014%=      5-min Rain = 0
KFLS 112135Z 01014G22KT 14/M13 A3024 RMK A01 T01411129  RH  014%=      5-min Rain = 0
KFLS 112140Z 02014G19KT 14/M13 A3024 RMK A01 T01421127  RH  014%=      5-min Rain = 0
KFLS 112145Z 01015G22KT 14/M13 A3024 RMK A01 T01431129  RH  014%=      5-min Rain = 0
KFLS 112150Z 01012G18KT 14/M13 A3024 RMK A01 T01441130  RH  014%=      5-min Rain = 0
KFLS 112155Z 34014KT 14/M13 A3023 RMK A01 T01391134  RH  014%=      5-min Rain = 0
KFLS 112200Z 35014G21KT 14/M13 A3023 RMK A01 T01391131  RH  014%=      5-min Rain = 0
KFLS 112205Z 35016G21KT 14/M13 A3023 RMK A01 T01361133  RH  014%=      5-min Rain = 0
KFLS 112210Z 36013G22KT 14/M14 A3023 RMK A01 T01351138  RH  014%=      5-min Rain = 0
KFLS 112215Z 00015G20KT 14/M14 A3023 RMK A01 T01381139  RH  014%=      5-min Rain = 0
KFLS 112220Z 02015KT 14/M14 A3023 RMK A01 T01381138  RH  014%=      5-min Rain = 0
KFLS 112225Z 01012G18KT 14/M14 A3023 RMK A01 T01401141  RH  013%=      5-min Rain = 0
KFLS 112230Z 00014G22KT 14/M14 A3023 RMK A01 T01401142  RH  013%=      5-min Rain = 0
KFLS 112235Z 01012G18KT 14/M14 A3023 RMK A01 T01351139  RH  014%=      5-min Rain = 0
KFLS 112240Z 01014G21KT 14/M14 A3023 RMK A01 T01401141  RH  013%=      5-min Rain = 0
KFLS 112245Z 00015G20KT 14/M15 A3023 RMK A01 T01371152  RH  012%=      5-min Rain = 0
KFLS 112250Z 35013G18KT 14/M16 A3024 RMK A01 T01381155  RH  012%=      5-min Rain = 0
KFLS 112255Z 35016G21KT 13/M16 A3024 RMK A01 T01331159  RH  012%=      5-min Rain = 0
KFLS 112300Z 35014G19KT 13/M16 A3024 RMK A01 T01321158  RH  012%=      5-min Rain = 0
KFLS 112305Z 36012KT 13/M16 A3024 RMK A01 T01311159  RH  012%=      5-min Rain = 0
KFLS 112310Z 01011KT 13/M15 A3024 RMK A01 T01331153  RH  012%=      5-min Rain = 0
KFLS 112315Z 01010G15KT 13/M15 A3024 RMK A01 T01341153  RH  012%=      5-min Rain = 0
KFLS 112320Z 01014KT 14/M16 A3025 RMK A01 T01351157  RH  012%=      5-min Rain = 0
KFLS 112325Z 35013G19KT 13/M16 A3025 RMK A01 T01321159  RH  012%=      5-min Rain = 0
KFLS 112330Z 00011G16KT 13/M16 A3025 RMK A01 T01311163  RH  012%=      5-min Rain = 0
KFLS 112335Z 00013G19KT 13/M17 A3025 RMK A01 T01271167  RH  012%=      5-min Rain = 0
KFLS 112340Z 01013KT 12/M17 A3025 RMK A01 T01181170  RH  012%=      5-min Rain = 0
KFLS 112345Z 36011KT 12/M17 A3026 RMK A01 T01161169  RH  012%=      5-min Rain = 0
KFLS 112350Z 01009KT 12/M17 A3026 RMK A01 T01161167  RH  012%=      5-min Rain = 0
KFLS 112355Z 02010KT 11/M17 A3026 RMK A01 T01141171  RH  012%=      5-min Rain = 0
KFLS 120000Z 01009KT 11/M17 A3026 RMK A01 T01131172  RH  012%=      5-min Rain = 0
KFLS 120005Z 02009KT 11/M17 A3026 RMK A01 T01111174  RH  012%=      5-min Rain = 0
KFLS 120010Z 02008KT 11/M18 A3026 RMK A01 T01081175  RH  012%=      5-min Rain = 0
KFLS 120015Z 02008KT 11/M17 A3027 RMK A01 T01051173  RH  013%=      5-min Rain = 0
KFLS 120020Z 02009KT 11/M17 A3027 RMK A01 T01061172  RH  013%=      5-min Rain = 0
KFLS 120025Z 02008KT 10/M17 A3027 RMK A01 T01041172  RH  013%=      5-min Rain = 0
KFLS 120030Z 02009KT 10/M17 A3027 RMK A01 T01041173  RH  013%=      5-min Rain = 0
KFLS 120035Z 02009KT 10/M17 A3027 RMK A01 T01011174  RH  013%=      5-min Rain = 0
KFLS 120040Z 02008KT 10/M17 A3027 RMK A01 T01001173  RH  013%=      5-min Rain = 0
KFLS 120045Z 02007KT 10/M17 A3027 RMK A01 T00951171  RH  014%=      5-min Rain = 0
KFLS 120050Z 02007KT 09/M17 A3028 RMK A01 T00911169  RH  014%=      5-min Rain = 0
KFLS 120055Z 02007KT 09/M17 A3028 RMK A01 T00871167  RH  015%=      5-min Rain = 0
KFLS 120100Z 02007KT 08/M17 A3028 RMK A01 T00841166  RH  015%=      5-min Rain = 0
KFLS 120105Z 01007KT 08/M17 A3028 RMK A01 T00801165  RH  016%=      5-min Rain = 0
KFLS 120110Z 01007KT 08/M17 A3029 RMK A01 T00761166  RH  016%=      5-min Rain = 0
KFLS 120115Z 01007KT 07/M17 A3029 RMK A01 T00731166  RH  017%=      5-min Rain = 0
KFLS 120120Z 01006KT 07/M17 A3029 RMK A01 T00711167  RH  017%=      5-min Rain = 0
KFLS 120125Z 01005KT 07/M17 A3029 RMK A01 T00701168  RH  017%=      5-min Rain = 0
KFLS 120130Z 01005KT 07/M17 A3029 RMK A01 T00701169  RH  017%=      5-min Rain = 0
KFLS 120135Z 00006KT 07/M17 A3029 RMK A01 T00681168  RH  017%=      5-min Rain = 0
KFLS 120140Z 00006KT 07/M17 A3029 RMK A01 T00681166  RH  017%=      5-min Rain = 0
KFLS 120145Z 00006KT 07/M17 A3029 RMK A01 T00701166  RH  017%=      5-min Rain = 0
KFLS 120150Z 00005KT 07/M17 A303 RMK A01 T00691165  RH  017%=      5-min Rain = 0
KFLS 120155Z 35005KT 07/M16 A303 RMK A01 T00681162  RH  018%=      5-min Rain = 0
KFLS 120200Z 35004KT 06/M16 A303 RMK A01 T00601158  RH  019%=      5-min Rain = 0
KFLS 120205Z 36005KT 06/M16 A303 RMK A01 T00591159  RH  019%=      5-min Rain = 0
KFLS 120210Z 00006KT 06/M16 A303 RMK A01 T00631157  RH  019%=      5-min Rain = 0
KFLS 120215Z 01008KT 07/M16 A3031 RMK A01 T00651156  RH  019%=      5-min Rain = 0
KFLS 120220Z 01007KT 06/M16 A3031 RMK A01 T00601157  RH  020%=      5-min Rain = 0
KFLS 120225Z 01006KT 06/M16 A3031 RMK A01 T00581157  RH  020%=      5-min Rain = 0
KFLS 120230Z 01006KT 06/M16 A3031 RMK A01 T00591158  RH  020%=      5-min Rain = 0
KFLS 120235Z 02006KT 05/M16 A3031 RMK A01 T00541155  RH  021%=      5-min Rain = 0
KFLS 120240Z 02007KT 05/M15 A3031 RMK A01 T00491151  RH  022%=      5-min Rain = 0
KFLS 120245Z 02008KT 05/M15 A3032 RMK A01 T00461150  RH  023%=      5-min Rain = 0
KFLS 120250Z 02008KT 04/M15 A3032 RMK A01 T00421150  RH  024%=      5-min Rain = 0
KFLS 120255Z 02008KT 05/M15 A3031 RMK A01 T00451150  RH  023%=      5-min Rain = 0
KFLS 120300Z 02008KT 05/M15 A3032 RMK A01 T00471149  RH  023%=      5-min Rain = 0
KFLS 120305Z 02008KT 04/M15 A3032 RMK A01 T00421148  RH  024%=      5-min Rain = 0
KFLS 120310Z 02009KT 04/M15 A3032 RMK A01 T00371146  RH  025%=      5-min Rain = 0
KFLS 120315Z 02009KT 03/M14 A3032 RMK A01 T00301144  RH  027%=      5-min Rain = 0
KFLS 120320Z 02010KT 03/M14 A3032 RMK A01 T00321137  RH  028%=      5-min Rain = 0
KFLS 120325Z 03010KT 04/M13 A3032 RMK A01 T00361132  RH  029%=      5-min Rain = 0
KFLS 120330Z 03009KT 04/M13 A3032 RMK A01 T00391126  RH  029%=      5-min Rain = 0
KFLS 120335Z 03009KT 04/M12 A3032 RMK A01 T00391123  RH  030%=      5-min Rain = 0
KFLS 120340Z 02008KT 04/M12 A3032 RMK A01 T00381122  RH  031%=      5-min Rain = 0
KFLS 120345Z 02008KT 03/M13 A3033 RMK A01 T00341125  RH  031%=      5-min Rain = 0
KFLS 120350Z 02008KT 03/M13 A3033 RMK A01 T00311125  RH  031%=      5-min Rain = 0
KFLS 120355Z 03007KT 03/M12 A3033 RMK A01 T00311121  RH  032%=      5-min Rain = 0
KFLS 120400Z 03007KT 03/M12 A3034 RMK A01 T00321116  RH  033%=      5-min Rain = 0
KFLS 120405Z 04007KT 03/M12 A3034 RMK A01 T00321115  RH  033%=      5-min Rain = 0
KFLS 120410Z 04008KT 03/M12 A3034 RMK A01 T00271117  RH  034%=      5-min Rain = 0
KFLS 120415Z 04008KT 03/M12 A3034 RMK A01 T00251117  RH  035%=      5-min Rain = 0
KFLS 120420Z 04008KT 02/M12 A3034 RMK A01 T00241118  RH  035%=      5-min Rain = 0
KFLS 120425Z 03008KT 02/M12 A3034 RMK A01 T00231117  RH  035%=      5-min Rain = 0
KFLS 120430Z 03008KT 02/M12 A3034 RMK A01 T00221117  RH  036%=      5-min Rain = 0
KFLS 120435Z 03007KT 02/M12 A3034 RMK A01 T00201117  RH  036%=      5-min Rain = 0
KFLS 120440Z 03007KT 02/M11 A3034 RMK A01 T00201113  RH  037%=      5-min Rain = 0
KFLS 120445Z 03007KT 02/M11 A3034 RMK A01 T00181110  RH  039%=      5-min Rain = 0
KFLS 120450Z 03007KT 02/M10 A3034 RMK A01 T00201104  RH  040%=      5-min Rain = 0
KFLS 120455Z 02008KT 02/M10 A3034 RMK A01 T00221100  RH  041%=      5-min Rain = 0

Page generated in 0.0093 seconds.